Cherry Grove, New York
Current Conditions -  °F | °C
As of 7:56 PM on Saturday 25 Oct 2014 (Local Time) from KISP Reporting Station
Few Clouds Few Clouds  
Wind Chill: 58°   Ceiling: Unl
Heat Index: 58°   Visibility: 10mi
Dew Point: 49°   Wind: 7mph
Humidity: 72%   Direction: 230°SW
Pressure: 29.63"   Gusts: NA
Location:  40.7472°N, 73.0832°W
Report Text: KISP 252356Z 23006KT 10SM FEW260 14/09 A2963 RMK AO2 SLP031 T01440094 10194 20139 56009
Loading
Personal Weather Stations






























Interactive Weather Map
Tropical Storm Tracking
New forecast layout! Learn more

10-Day Weather Forecast

Advertisements
Track Severe Weather on mobile